sensor_id;sensor_type;location;lat;lon;timestamp;P1;durP1;ratioP1;P2;durP2;ratioP2
13218;SDS011;6674;49.152;11.918;2023-04-01T00:01:22;2.57;;;1.23;;
13218;SDS011;6674;49.152;11.918;2023-04-01T00:03:49;3.10;;;1.27;;
13218;SDS011;6674;49.152;11.918;2023-04-01T00:06:17;2.80;;;1.20;;
13218;SDS011;6674;49.152;11.918;2023-04-01T00:08:44;2.80;;;1.30;;
13218;SDS011;6674;49.152;11.918;2023-04-01T00:11:11;3.43;;;1.30;;
13218;SDS011;6674;49.152;11.918;2023-04-01T00:13:38;2.97;;;1.03;;
13218;SDS011;6674;49.152;11.918;2023-04-01T00:16:06;4.57;;;1.03;;
13218;SDS011;6674;49.152;11.918;2023-04-01T00:18:34;2.63;;;1.10;;
13218;SDS011;6674;49.152;11.918;2023-04-01T00:21:00;2.70;;;1.20;;
13218;SDS011;6674;49.152;11.918;2023-04-01T00:23:27;4.10;;;1.37;;
13218;SDS011;6674;49.152;11.918;2023-04-01T00:25:54;2.53;;;0.97;;
13218;SDS011;6674;49.152;11.918;2023-04-01T00:28:20;3.23;;;1.17;;
13218;SDS011;6674;49.152;11.918;2023-04-01T00:30:47;2.30;;;0.97;;
13218;SDS011;6674;49.152;11.918;2023-04-01T00:33:15;3.20;;;0.93;;
13218;SDS011;6674;49.152;11.918;2023-04-01T00:35:42;2.73;;;0.80;;
13218;SDS011;6674;49.152;11.918;2023-04-01T00:38:10;2.13;;;1.03;;
13218;SDS011;6674;49.152;11.918;2023-04-01T00:40:37;1.57;;;0.80;;
13218;SDS011;6674;49.152;11.918;2023-04-01T00:43:09;1.60;;;0.90;;
13218;SDS011;6674;49.152;11.918;2023-04-01T00:45:39;2.77;;;1.10;;
13218;SDS011;6674;49.152;11.918;2023-04-01T00:48:08;1.90;;;0.90;;
13218;SDS011;6674;49.152;11.918;2023-04-01T00:50:38;2.03;;;1.10;;
13218;SDS011;6674;49.152;11.918;2023-04-01T00:53:08;2.67;;;1.17;;
13218;SDS011;6674;49.152;11.918;2023-04-01T00:55:37;2.00;;;1.07;;
13218;SDS011;6674;49.152;11.918;2023-04-01T00:58:08;5.93;;;1.53;;
13218;SDS011;6674;49.152;11.918;2023-04-01T01:00:40;2.40;;;0.73;;
13218;SDS011;6674;49.152;11.918;2023-04-01T01:03:06;3.70;;;1.10;;
13218;SDS011;6674;49.152;11.918;2023-04-01T01:05:36;1.70;;;0.87;;
13218;SDS011;6674;49.152;11.918;2023-04-01T01:08:14;1.63;;;0.70;;
13218;SDS011;6674;49.152;11.918;2023-04-01T01:10:49;1.17;;;0.73;;
13218;SDS011;6674;49.152;11.918;2023-04-01T01:13:17;2.80;;;1.00;;
13218;SDS011;6674;49.152;11.918;2023-04-01T01:15:49;3.47;;;0.80;;
13218;SDS011;6674;49.152;11.918;2023-04-01T01:18:22;2.43;;;1.10;;
13218;SDS011;6674;49.152;11.918;2023-04-01T01:21:01;2.20;;;0.90;;
13218;SDS011;6674;49.152;11.918;2023-04-01T01:23:48;1.23;;;0.60;;
13218;SDS011;6674;49.152;11.918;2023-04-01T01:26:36;3.00;;;1.00;;
13218;SDS011;6674;49.152;11.918;2023-04-01T01:29:16;0.70;;;0.60;;
13218;SDS011;6674;49.152;11.918;2023-04-01T01:32:09;1.23;;;0.60;;
13218;SDS011;6674;49.152;11.918;2023-04-01T01:34:40;0.87;;;0.57;;
13218;SDS011;6674;49.152;11.918;2023-04-01T01:37:20;1.70;;;0.60;;
13218;SDS011;6674;49.152;11.918;2023-04-01T01:39:51;2.13;;;0.70;;
13218;SDS011;6674;49.152;11.918;2023-04-01T01:42:20;2.63;;;0.80;;
13218;SDS011;6674;49.152;11.918;2023-04-01T01:44:49;2.27;;;0.70;;
13218;SDS011;6674;49.152;11.918;2023-04-01T01:47:17;2.17;;;0.77;;
13218;SDS011;6674;49.152;11.918;2023-04-01T01:49:46;1.93;;;0.63;;
13218;SDS011;6674;49.152;11.918;2023-04-01T01:52:13;1.97;;;0.70;;
13218;SDS011;6674;49.152;11.918;2023-04-01T01:54:47;1.93;;;0.70;;
13218;SDS011;6674;49.152;11.918;2023-04-01T01:57:14;1.50;;;0.50;;
13218;SDS011;6674;49.152;11.918;2023-04-01T01:59:44;1.33;;;0.50;;
13218;SDS011;6674;49.152;11.918;2023-04-01T02:02:12;1.20;;;0.50;;
13218;SDS011;6674;49.152;11.918;2023-04-01T02:04:41;2.87;;;0.77;;
13218;SDS011;6674;49.152;11.918;2023-04-01T02:07:12;1.73;;;0.40;;
13218;SDS011;6674;49.152;11.918;2023-04-01T02:09:42;2.37;;;0.90;;
13218;SDS011;6674;49.152;11.918;2023-04-01T02:12:12;1.70;;;0.63;;
13218;SDS011;6674;49.152;11.918;2023-04-01T02:14:43;2.50;;;0.93;;
13218;SDS011;6674;49.152;11.918;2023-04-01T02:17:13;0.67;;;0.37;;
13218;SDS011;6674;49.152;11.918;2023-04-01T02:19:43;1.97;;;0.60;;
13218;SDS011;6674;49.152;11.918;2023-04-01T02:22:16;2.70;;;0.60;;
13218;SDS011;6674;49.152;11.918;2023-04-01T02:24:47;1.57;;;0.70;;
13218;SDS011;6674;49.152;11.918;2023-04-01T02:27:16;1.77;;;0.60;;
13218;SDS011;6674;49.152;11.918;2023-04-01T02:29:43;1.80;;;0.80;;
13218;SDS011;6674;49.152;11.918;2023-04-01T02:32:10;2.43;;;0.70;;
13218;SDS011;6674;49.152;11.918;2023-04-01T02:34:39;1.67;;;0.80;;
13218;SDS011;6674;49.152;11.918;2023-04-01T02:37:08;0.93;;;0.53;;
13218;SDS011;6674;49.152;11.918;2023-04-01T02:39:37;0.97;;;0.70;;
13218;SDS011;6674;49.152;11.918;2023-04-01T02:42:04;2.07;;;0.83;;
13218;SDS011;6674;49.152;11.918;2023-04-01T02:44:32;1.83;;;0.70;;
13218;SDS011;6674;49.152;11.918;2023-04-01T02:46:59;1.63;;;0.87;;
13218;SDS011;6674;49.152;11.918;2023-04-01T02:49:26;3.17;;;0.77;;
13218;SDS011;6674;49.152;11.918;2023-04-01T02:51:53;2.10;;;1.03;;
13218;SDS011;6674;49.152;11.918;2023-04-01T02:54:20;2.40;;;0.70;;
13218;SDS011;6674;49.152;11.918;2023-04-01T02:56:47;2.53;;;1.00;;
13218;SDS011;6674;49.152;11.918;2023-04-01T02:59:14;1.50;;;0.83;;
13218;SDS011;6674;49.152;11.918;2023-04-01T03:01:42;2.03;;;0.50;;
13218;SDS011;6674;49.152;11.918;2023-04-01T03:04:09;2.70;;;1.00;;
13218;SDS011;6674;49.152;11.918;2023-04-01T03:06:36;1.20;;;0.80;;
13218;SDS011;6674;49.152;11.918;2023-04-01T03:09:02;3.40;;;1.10;;
13218;SDS011;6674;49.152;11.918;2023-04-01T03:11:29;2.90;;;1.10;;
13218;SDS011;6674;49.152;11.918;2023-04-01T03:13:56;1.43;;;0.80;;
13218;SDS011;6674;49.152;11.918;2023-04-01T03:16:22;2.87;;;0.83;;
13218;SDS011;6674;49.152;11.918;2023-04-01T03:18:50;1.93;;;0.80;;
13218;SDS011;6674;49.152;11.918;2023-04-01T03:21:18;2.67;;;0.97;;
13218;SDS011;6674;49.152;11.918;2023-04-01T03:23:46;2.93;;;0.90;;
13218;SDS011;6674;49.152;11.918;2023-04-01T03:26:13;2.53;;;1.00;;
13218;SDS011;6674;49.152;11.918;2023-04-01T03:28:40;0.60;;;0.60;;
13218;SDS011;6674;49.152;11.918;2023-04-01T03:31:06;2.27;;;0.97;;
13218;SDS011;6674;49.152;11.918;2023-04-01T03:33:33;2.70;;;1.20;;
13218;SDS011;6674;49.152;11.918;2023-04-01T03:36:01;1.63;;;1.00;;
13218;SDS011;6674;49.152;11.918;2023-04-01T03:38:31;0.73;;;0.70;;
13218;SDS011;6674;49.152;11.918;2023-04-01T03:40:58;2.20;;;0.80;;
13218;SDS011;6674;49.152;11.918;2023-04-01T03:43:25;2.53;;;1.00;;
13218;SDS011;6674;49.152;11.918;2023-04-01T03:45:51;2.40;;;0.90;;
13218;SDS011;6674;49.152;11.918;2023-04-01T03:48:19;1.67;;;0.80;;
13218;SDS011;6674;49.152;11.918;2023-04-01T03:50:46;2.27;;;0.80;;
13218;SDS011;6674;49.152;11.918;2023-04-01T03:53:15;2.63;;;1.00;;
13218;SDS011;6674;49.152;11.918;2023-04-01T03:55:41;1.80;;;0.87;;
13218;SDS011;6674;49.152;11.918;2023-04-01T03:58:08;1.47;;;0.80;;
13218;SDS011;6674;49.152;11.918;2023-04-01T04:00:35;4.70;;;1.07;;
13218;SDS011;6674;49.152;11.918;2023-04-01T04:03:02;2.00;;;1.10;;
13218;SDS011;6674;49.152;11.918;2023-04-01T04:05:29;2.17;;;1.10;;
13218;SDS011;6674;49.152;11.918;2023-04-01T04:07:56;2.47;;;1.40;;
13218;SDS011;6674;49.152;11.918;2023-04-01T04:10:24;2.53;;;1.27;;
13218;SDS011;6674;49.152;11.918;2023-04-01T04:12:51;2.00;;;0.50;;
13218;SDS011;6674;49.152;11.918;2023-04-01T04:15:18;2.10;;;1.00;;
13218;SDS011;6674;49.152;11.918;2023-04-01T04:17:45;1.93;;;1.03;;
13218;SDS011;6674;49.152;11.918;2023-04-01T04:20:12;1.83;;;0.70;;
13218;SDS011;6674;49.152;11.918;2023-04-01T04:22:38;4.20;;;1.00;;
13218;SDS011;6674;49.152;11.918;2023-04-01T04:25:05;1.90;;;0.87;;
13218;SDS011;6674;49.152;11.918;2023-04-01T04:27:34;3.07;;;0.90;;
13218;SDS011;6674;49.152;11.918;2023-04-01T04:30:02;3.23;;;1.00;;
13218;SDS011;6674;49.152;11.918;2023-04-01T04:32:29;1.00;;;0.80;;
13218;SDS011;6674;49.152;11.918;2023-04-01T04:34:56;2.20;;;0.80;;
13218;SDS011;6674;49.152;11.918;2023-04-01T04:37:23;1.87;;;0.70;;
13218;SDS011;6674;49.152;11.918;2023-04-01T04:39:50;1.13;;;0.60;;
13218;SDS011;6674;49.152;11.918;2023-04-01T04:42:17;1.50;;;1.00;;
13218;SDS011;6674;49.152;11.918;2023-04-01T04:44:45;1.47;;;0.73;;
13218;SDS011;6674;49.152;11.918;2023-04-01T04:47:12;3.53;;;1.20;;
13218;SDS011;6674;49.152;11.918;2023-04-01T04:49:39;1.07;;;0.63;;
13218;SDS011;6674;49.152;11.918;2023-04-01T04:52:08;3.03;;;1.00;;
13218;SDS011;6674;49.152;11.918;2023-04-01T04:54:35;1.40;;;0.60;;
13218;SDS011;6674;49.152;11.918;2023-04-01T04:57:02;1.37;;;0.83;;
13218;SDS011;6674;49.152;11.918;2023-04-01T04:59:29;1.17;;;1.00;;
13218;SDS011;6674;49.152;11.918;2023-04-01T05:01:57;0.80;;;0.80;;
13218;SDS011;6674;49.152;11.918;2023-04-01T05:04:24;1.60;;;0.83;;
13218;SDS011;6674;49.152;11.918;2023-04-01T05:06:51;2.93;;;0.90;;
13218;SDS011;6674;49.152;11.918;2023-04-01T05:09:17;1.53;;;1.07;;
13218;SDS011;6674;49.152;11.918;2023-04-01T05:11:44;2.70;;;1.23;;
13218;SDS011;6674;49.152;11.918;2023-04-01T05:14:14;2.73;;;1.20;;
13218;SDS011;6674;49.152;11.918;2023-04-01T05:16:41;1.97;;;1.20;;
13218;SDS011;6674;49.152;11.918;2023-04-01T05:19:09;2.10;;;1.10;;
13218;SDS011;6674;49.152;11.918;2023-04-01T05:21:36;2.20;;;1.00;;
13218;SDS011;6674;49.152;11.918;2023-04-01T05:24:02;1.73;;;0.77;;
13218;SDS011;6674;49.152;11.918;2023-04-01T05:26:29;1.80;;;1.00;;
13218;SDS011;6674;49.152;11.918;2023-04-01T05:28:57;1.93;;;0.80;;
13218;SDS011;6674;49.152;11.918;2023-04-01T05:31:24;1.33;;;0.70;;
13218;SDS011;6674;49.152;11.918;2023-04-01T05:33:50;1.30;;;0.77;;
13218;SDS011;6674;49.152;11.918;2023-04-01T05:36:19;2.23;;;0.90;;
13218;SDS011;6674;49.152;11.918;2023-04-01T05:38:46;1.60;;;0.80;;
13218;SDS011;6674;49.152;11.918;2023-04-01T05:41:14;1.40;;;0.63;;
13218;SDS011;6674;49.152;11.918;2023-04-01T05:43:41;1.40;;;0.63;;
13218;SDS011;6674;49.152;11.918;2023-04-01T05:46:08;0.77;;;0.63;;
13218;SDS011;6674;49.152;11.918;2023-04-01T05:48:35;1.07;;;0.77;;
13218;SDS011;6674;49.152;11.918;2023-04-01T05:51:02;3.10;;;0.93;;
13218;SDS011;6674;49.152;11.918;2023-04-01T05:53:31;1.93;;;0.83;;
13218;SDS011;6674;49.152;11.918;2023-04-01T05:56:01;1.60;;;0.57;;
13218;SDS011;6674;49.152;11.918;2023-04-01T05:58:28;1.90;;;0.67;;
13218;SDS011;6674;49.152;11.918;2023-04-01T06:00:59;2.13;;;0.73;;
13218;SDS011;6674;49.152;11.918;2023-04-01T06:03:27;1.83;;;0.80;;
13218;SDS011;6674;49.152;11.918;2023-04-01T06:05:53;0.50;;;0.40;;
13218;SDS011;6674;49.152;11.918;2023-04-01T06:08:20;1.17;;;0.50;;
13218;SDS011;6674;49.152;11.918;2023-04-01T06:10:55;0.80;;;0.50;;
13218;SDS011;6674;49.152;11.918;2023-04-01T06:13:36;1.30;;;0.57;;
13218;SDS011;6674;49.152;11.918;2023-04-01T06:16:15;1.57;;;0.40;;
13218;SDS011;6674;49.152;11.918;2023-04-01T06:18:54;0.77;;;0.50;;
13218;SDS011;6674;49.152;11.918;2023-04-01T06:21:32;1.13;;;0.57;;
13218;SDS011;6674;49.152;11.918;2023-04-01T06:24:18;0.80;;;0.50;;
13218;SDS011;6674;49.152;11.918;2023-04-01T06:26:58;1.17;;;0.50;;
13218;SDS011;6674;49.152;11.918;2023-04-01T06:29:34;2.47;;;0.40;;
13218;SDS011;6674;49.152;11.918;2023-04-01T06:32:35;0.90;;;0.47;;
13218;SDS011;6674;49.152;11.918;2023-04-01T06:35:17;1.60;;;0.30;;
13218;SDS011;6674;49.152;11.918;2023-04-01T06:37:58;0.30;;;0.20;;
13218;SDS011;6674;49.152;11.918;2023-04-01T06:41:06;1.23;;;0.70;;
13218;SDS011;6674;49.152;11.918;2023-04-01T06:43:51;0.60;;;0.23;;
13218;SDS011;6674;49.152;11.918;2023-04-01T06:46:26;0.87;;;0.30;;
13218;SDS011;6674;49.152;11.918;2023-04-01T06:49:12;1.87;;;0.43;;
13218;SDS011;6674;49.152;11.918;2023-04-01T06:51:52;2.33;;;0.40;;
13218;SDS011;6674;49.152;11.918;2023-04-01T06:54:25;1.40;;;0.40;;
13218;SDS011;6674;49.152;11.918;2023-04-01T06:56:59;0.67;;;0.23;;
13218;SDS011;6674;49.152;11.918;2023-04-01T06:59:33;1.43;;;0.40;;
13218;SDS011;6674;49.152;11.918;2023-04-01T07:02:04;1.00;;;0.50;;
13218;SDS011;6674;49.152;11.918;2023-04-01T07:04:42;0.63;;;0.30;;
13218;SDS011;6674;49.152;11.918;2023-04-01T07:07:14;0.40;;;0.40;;
13218;SDS011;6674;49.152;11.918;2023-04-01T07:09:48;0.37;;;0.30;;
13218;SDS011;6674;49.152;11.918;2023-04-01T07:12:18;1.63;;;0.40;;
13218;SDS011;6674;49.152;11.918;2023-04-01T07:14:51;0.63;;;0.30;;
13218;SDS011;6674;49.152;11.918;2023-04-01T07:17:23;1.57;;;0.30;;
13218;SDS011;6674;49.152;11.918;2023-04-01T07:19:56;1.37;;;0.20;;
13218;SDS011;6674;49.152;11.918;2023-04-01T07:22:29;0.77;;;0.40;;
13218;SDS011;6674;49.152;11.918;2023-04-01T07:25:01;0.20;;;0.10;;
13218;SDS011;6674;49.152;11.918;2023-04-01T07:27:29;0.87;;;0.40;;
13218;SDS011;6674;49.152;11.918;2023-04-01T07:29:59;1.03;;;0.30;;
13218;SDS011;6674;49.152;11.918;2023-04-01T07:32:31;0.50;;;0.30;;
13218;SDS011;6674;49.152;11.918;2023-04-01T07:35:09;0.20;;;0.20;;
13218;SDS011;6674;49.152;11.918;2023-04-01T07:37:46;1.73;;;0.27;;
13218;SDS011;6674;49.152;11.918;2023-04-01T07:40:25;1.40;;;0.60;;
13218;SDS011;6674;49.152;11.918;2023-04-01T07:43:07;0.30;;;0.30;;
13218;SDS011;6674;49.152;11.918;2023-04-01T07:45:54;1.10;;;0.47;;
13218;SDS011;6674;49.152;11.918;2023-04-01T07:48:30;0.70;;;0.40;;
13218;SDS011;6674;49.152;11.918;2023-04-01T07:51:07;1.07;;;0.30;;
13218;SDS011;6674;49.152;11.918;2023-04-01T07:53:41;1.60;;;0.50;;
13218;SDS011;6674;49.152;11.918;2023-04-01T07:56:14;0.93;;;0.30;;
13218;SDS011;6674;49.152;11.918;2023-04-01T07:58:48;2.27;;;0.43;;
13218;SDS011;6674;49.152;11.918;2023-04-01T08:01:27;0.40;;;0.40;;
13218;SDS011;6674;49.152;11.918;2023-04-01T08:04:12;0.67;;;0.20;;
13218;SDS011;6674;49.152;11.918;2023-04-01T08:06:47;1.40;;;0.47;;
13218;SDS011;6674;49.152;11.918;2023-04-01T08:09:21;1.70;;;0.40;;
13218;SDS011;6674;49.152;11.918;2023-04-01T08:11:58;0.77;;;0.40;;
13218;SDS011;6674;49.152;11.918;2023-04-01T08:14:32;0.60;;;0.37;;
13218;SDS011;6674;49.152;11.918;2023-04-01T08:17:08;1.07;;;0.27;;
13218;SDS011;6674;49.152;11.918;2023-04-01T08:19:49;0.80;;;0.30;;
13218;SDS011;6674;49.152;11.918;2023-04-01T08:22:27;0.60;;;0.27;;
13218;SDS011;6674;49.152;11.918;2023-04-01T08:24:56;1.60;;;0.47;;
13218;SDS011;6674;49.152;11.918;2023-04-01T08:27:28;1.20;;;0.40;;
13218;SDS011;6674;49.152;11.918;2023-04-01T08:30:02;1.57;;;0.43;;
13218;SDS011;6674;49.152;11.918;2023-04-01T08:32:34;1.37;;;0.40;;
13218;SDS011;6674;49.152;11.918;2023-04-01T08:35:07;0.60;;;0.50;;
13218;SDS011;6674;49.152;11.918;2023-04-01T08:37:41;0.90;;;0.40;;
13218;SDS011;6674;49.152;11.918;2023-04-01T08:43:04;1.53;;;0.30;;
13218;SDS011;6674;49.152;11.918;2023-04-01T08:45:42;0.93;;;0.30;;
13218;SDS011;6674;49.152;11.918;2023-04-01T08:48:25;0.20;;;0.20;;
13218;SDS011;6674;49.152;11.918;2023-04-01T08:54:24;0.93;;;0.40;;
13218;SDS011;6674;49.152;11.918;2023-04-01T08:57:05;0.97;;;0.30;;
13218;SDS011;6674;49.152;11.918;2023-04-01T08:59:45;0.83;;;0.33;;
13218;SDS011;6674;49.152;11.918;2023-04-01T09:02:25;1.63;;;0.40;;
13218;SDS011;6674;49.152;11.918;2023-04-01T09:05:26;1.17;;;0.30;;
13218;SDS011;6674;49.152;11.918;2023-04-01T09:08:06;0.77;;;0.40;;
13218;SDS011;6674;49.152;11.918;2023-04-01T09:13:44;0.50;;;0.40;;
13218;SDS011;6674;49.152;11.918;2023-04-01T09:16:38;0.97;;;0.50;;
13218;SDS011;6674;49.152;11.918;2023-04-01T09:19:16;1.27;;;0.40;;
13218;SDS011;6674;49.152;11.918;2023-04-01T09:22:10;1.00;;;0.27;;
13218;SDS011;6674;49.152;11.918;2023-04-01T09:24:52;0.73;;;0.40;;
13218;SDS011;6674;49.152;11.918;2023-04-01T09:27:32;0.80;;;0.30;;
13218;SDS011;6674;49.152;11.918;2023-04-01T09:33:16;0.67;;;0.30;;
13218;SDS011;6674;49.152;11.918;2023-04-01T09:36:07;1.40;;;0.50;;
13218;SDS011;6674;49.152;11.918;2023-04-01T09:38:49;0.97;;;0.60;;
13218;SDS011;6674;49.152;11.918;2023-04-01T09:41:27;0.80;;;0.40;;
13218;SDS011;6674;49.152;11.918;2023-04-01T09:44:03;1.17;;;0.60;;
13218;SDS011;6674;49.152;11.918;2023-04-01T09:46:44;0.80;;;0.30;;
13218;SDS011;6674;49.152;11.918;2023-04-01T09:49:31;1.60;;;0.37;;
13218;SDS011;6674;49.152;11.918;2023-04-01T09:52:18;0.40;;;0.30;;
13218;SDS011;6674;49.152;11.918;2023-04-01T09:55:03;0.63;;;0.40;;
13218;SDS011;6674;49.152;11.918;2023-04-01T10:00:50;0.93;;;0.40;;
13218;SDS011;6674;49.152;11.918;2023-04-01T10:03:39;1.10;;;0.47;;
13218;SDS011;6674;49.152;11.918;2023-04-01T10:12:47;1.27;;;0.40;;
13218;SDS011;6674;49.152;11.918;2023-04-01T10:18:55;0.87;;;0.30;;
13218;SDS011;6674;49.152;11.918;2023-04-01T10:30:58;1.20;;;0.37;;
13218;SDS011;6674;49.152;11.918;2023-04-01T10:34:01;0.53;;;0.40;;
13218;SDS011;6674;49.152;11.918;2023-04-01T10:36:53;1.10;;;0.40;;
13218;SDS011;6674;49.152;11.918;2023-04-01T10:39:33;1.13;;;0.20;;
13218;SDS011;6674;49.152;11.918;2023-04-01T10:42:17;0.87;;;0.37;;
13218;SDS011;6674;49.152;11.918;2023-04-01T10:48:14;0.40;;;0.30;;
13218;SDS011;6674;49.152;11.918;2023-04-01T10:50:53;0.47;;;0.30;;
13218;SDS011;6674;49.152;11.918;2023-04-01T10:53:43;0.73;;;0.37;;
13218;SDS011;6674;49.152;11.918;2023-04-01T10:59:19;0.70;;;0.30;;
13218;SDS011;6674;49.152;11.918;2023-04-01T11:08:23;0.83;;;0.30;;
13218;SDS011;6674;49.152;11.918;2023-04-01T11:17:27;0.37;;;0.20;;
13218;SDS011;6674;49.152;11.918;2023-04-01T11:23:23;0.33;;;0.20;;
13218;SDS011;6674;49.152;11.918;2023-04-01T11:26:09;1.63;;;0.40;;
13218;SDS011;6674;49.152;11.918;2023-04-01T11:31:58;0.63;;;0.30;;
13218;SDS011;6674;49.152;11.918;2023-04-01T11:34:39;1.33;;;0.40;;
13218;SDS011;6674;49.152;11.918;2023-04-01T11:37:25;0.77;;;0.40;;
13218;SDS011;6674;49.152;11.918;2023-04-01T11:40:04;1.10;;;0.40;;
13218;SDS011;6674;49.152;11.918;2023-04-01T11:42:40;0.33;;;0.20;;
13218;SDS011;6674;49.152;11.918;2023-04-01T11:45:15;0.90;;;0.27;;
13218;SDS011;6674;49.152;11.918;2023-04-01T11:47:54;0.60;;;0.20;;
13218;SDS011;6674;49.152;11.918;2023-04-01T11:50:31;0.50;;;0.30;;
13218;SDS011;6674;49.152;11.918;2023-04-01T11:53:09;0.37;;;0.30;;
13218;SDS011;6674;49.152;11.918;2023-04-01T11:55:50;0.47;;;0.23;;
13218;SDS011;6674;49.152;11.918;2023-04-01T11:58:28;0.60;;;0.20;;
13218;SDS011;6674;49.152;11.918;2023-04-01T12:01:16;0.87;;;0.30;;
13218;SDS011;6674;49.152;11.918;2023-04-01T12:04:12;0.80;;;0.20;;
13218;SDS011;6674;49.152;11.918;2023-04-01T12:07:06;0.70;;;0.30;;
13218;SDS011;6674;49.152;11.918;2023-04-01T12:09:44;1.07;;;0.30;;
13218;SDS011;6674;49.152;11.918;2023-04-01T12:12:22;0.90;;;0.20;;
13218;SDS011;6674;49.152;11.918;2023-04-01T12:14:57;0.20;;;0.20;;
13218;SDS011;6674;49.152;11.918;2023-04-01T12:17:35;1.30;;;0.23;;
13218;SDS011;6674;49.152;11.918;2023-04-01T12:22:57;1.43;;;0.27;;
13218;SDS011;6674;49.152;11.918;2023-04-01T12:25:39;0.47;;;0.30;;
13218;SDS011;6674;49.152;11.918;2023-04-01T12:28:29;0.27;;;0.20;;
13218;SDS011;6674;49.152;11.918;2023-04-01T12:31:13;0.93;;;0.33;;
13218;SDS011;6674;49.152;11.918;2023-04-01T12:33:48;0.67;;;0.30;;
13218;SDS011;6674;49.152;11.918;2023-04-01T12:36:31;0.43;;;0.20;;
13218;SDS011;6674;49.152;11.918;2023-04-01T12:39:12;0.30;;;0.30;;
13218;SDS011;6674;49.152;11.918;2023-04-01T12:41:49;0.90;;;0.50;;
13218;SDS011;6674;49.152;11.918;2023-04-01T12:44:31;0.73;;;0.60;;
13218;SDS011;6674;49.152;11.918;2023-04-01T12:47:10;0.67;;;0.40;;
13218;SDS011;6674;49.152;11.918;2023-04-01T12:50:02;0.37;;;0.37;;
13218;SDS011;6674;49.152;11.918;2023-04-01T12:52:45;0.77;;;0.30;;
13218;SDS011;6674;49.152;11.918;2023-04-01T12:55:33;0.23;;;0.20;;
13218;SDS011;6674;49.152;11.918;2023-04-01T12:58:10;1.60;;;0.70;;
13218;SDS011;6674;49.152;11.918;2023-04-01T13:00:57;0.50;;;0.30;;
13218;SDS011;6674;49.152;11.918;2023-04-01T13:03:41;0.53;;;0.30;;
13218;SDS011;6674;49.152;11.918;2023-04-01T13:06:18;1.20;;;0.30;;
13218;SDS011;6674;49.152;11.918;2023-04-01T13:08:52;0.27;;;0.27;;
13218;SDS011;6674;49.152;11.918;2023-04-01T13:11:26;0.30;;;0.30;;
13218;SDS011;6674;49.152;11.918;2023-04-01T13:14:14;0.60;;;0.30;;
13218;SDS011;6674;49.152;11.918;2023-04-01T13:17:02;0.87;;;0.40;;
13218;SDS011;6674;49.152;11.918;2023-04-01T13:19:38;0.50;;;0.30;;
13218;SDS011;6674;49.152;11.918;2023-04-01T13:22:14;0.83;;;0.30;;
13218;SDS011;6674;49.152;11.918;2023-04-01T13:24:47;0.30;;;0.30;;
13218;SDS011;6674;49.152;11.918;2023-04-01T13:27:18;0.50;;;0.30;;
13218;SDS011;6674;49.152;11.918;2023-04-01T13:29:57;0.47;;;0.43;;
13218;SDS011;6674;49.152;11.918;2023-04-01T13:32:32;0.33;;;0.33;;
13218;SDS011;6674;49.152;11.918;2023-04-01T13:35:10;0.53;;;0.43;;
13218;SDS011;6674;49.152;11.918;2023-04-01T13:37:52;0.30;;;0.30;;
13218;SDS011;6674;49.152;11.918;2023-04-01T13:40:39;0.93;;;0.50;;
13218;SDS011;6674;49.152;11.918;2023-04-01T13:43:15;0.50;;;0.50;;
13218;SDS011;6674;49.152;11.918;2023-04-01T13:46:07;0.20;;;0.20;;
13218;SDS011;6674;49.152;11.918;2023-04-01T13:49:00;0.37;;;0.37;;
13218;SDS011;6674;49.152;11.918;2023-04-01T13:51:45;0.60;;;0.40;;
13218;SDS011;6674;49.152;11.918;2023-04-01T13:54:25;0.47;;;0.47;;
13218;SDS011;6674;49.152;11.918;2023-04-01T13:57:12;0.60;;;0.30;;
13218;SDS011;6674;49.152;11.918;2023-04-01T13:59:52;0.30;;;0.20;;
13218;SDS011;6674;49.152;11.918;2023-04-01T14:02:45;0.87;;;0.30;;
13218;SDS011;6674;49.152;11.918;2023-04-01T14:08:32;1.23;;;0.27;;
13218;SDS011;6674;49.152;11.918;2023-04-01T14:11:10;0.20;;;0.20;;
13218;SDS011;6674;49.152;11.918;2023-04-01T14:13:44;0.67;;;0.30;;
13218;SDS011;6674;49.152;11.918;2023-04-01T14:16:36;0.60;;;0.20;;
13218;SDS011;6674;49.152;11.918;2023-04-01T14:19:25;1.40;;;0.40;;
13218;SDS011;6674;49.152;11.918;2023-04-01T14:22:05;0.80;;;0.30;;
13218;SDS011;6674;49.152;11.918;2023-04-01T14:24:49;0.30;;;0.30;;
13218;SDS011;6674;49.152;11.918;2023-04-01T14:33:06;0.10;;;0.10;;
13218;SDS011;6674;49.152;11.918;2023-04-01T14:35:45;0.30;;;0.30;;
13218;SDS011;6674;49.152;11.918;2023-04-01T14:38:27;0.20;;;0.20;;
13218;SDS011;6674;49.152;11.918;2023-04-01T14:41:08;0.43;;;0.30;;
13218;SDS011;6674;49.152;11.918;2023-04-01T14:43:47;0.30;;;0.30;;
13218;SDS011;6674;49.152;11.918;2023-04-01T14:49:34;0.30;;;0.30;;
13218;SDS011;6674;49.152;11.918;2023-04-01T14:52:05;1.17;;;0.70;;
13218;SDS011;6674;49.152;11.918;2023-04-01T14:54:40;0.30;;;0.30;;
13218;SDS011;6674;49.152;11.918;2023-04-01T14:57:11;0.57;;;0.40;;
13218;SDS011;6674;49.152;11.918;2023-04-01T14:59:40;0.97;;;0.50;;
13218;SDS011;6674;49.152;11.918;2023-04-01T15:02:12;0.20;;;0.20;;
13218;SDS011;6674;49.152;11.918;2023-04-01T15:04:58;0.83;;;0.30;;
13218;SDS011;6674;49.152;11.918;2023-04-01T15:07:44;0.43;;;0.43;;
13218;SDS011;6674;49.152;11.918;2023-04-01T15:10:38;0.40;;;0.30;;
13218;SDS011;6674;49.152;11.918;2023-04-01T15:13:15;1.83;;;0.63;;
13218;SDS011;6674;49.152;11.918;2023-04-01T15:15:58;1.47;;;0.50;;
13218;SDS011;6674;49.152;11.918;2023-04-01T15:18:37;0.40;;;0.40;;
13218;SDS011;6674;49.152;11.918;2023-04-01T15:21:13;0.30;;;0.30;;
13218;SDS011;6674;49.152;11.918;2023-04-01T15:23:50;0.33;;;0.33;;
13218;SDS011;6674;49.152;11.918;2023-04-01T15:29:25;1.07;;;0.63;;
13218;SDS011;6674;49.152;11.918;2023-04-01T15:32:07;0.30;;;0.30;;
13218;SDS011;6674;49.152;11.918;2023-04-01T15:34:44;0.40;;;0.40;;
13218;SDS011;6674;49.152;11.918;2023-04-01T15:37:21;0.50;;;0.50;;
13218;SDS011;6674;49.152;11.918;2023-04-01T15:39:57;0.63;;;0.63;;
13218;SDS011;6674;49.152;11.918;2023-04-01T15:42:39;0.50;;;0.50;;
13218;SDS011;6674;49.152;11.918;2023-04-01T15:45:23;0.63;;;0.37;;
13218;SDS011;6674;49.152;11.918;2023-04-01T15:48:01;1.27;;;1.00;;
13218;SDS011;6674;49.152;11.918;2023-04-01T15:50:40;0.40;;;0.40;;
13218;SDS011;6674;49.152;11.918;2023-04-01T15:53:27;0.73;;;0.33;;
13218;SDS011;6674;49.152;11.918;2023-04-01T15:56:09;0.80;;;0.73;;
13218;SDS011;6674;49.152;11.918;2023-04-01T15:58:50;0.60;;;0.50;;
13218;SDS011;6674;49.152;11.918;2023-04-01T16:01:28;0.40;;;0.40;;
13218;SDS011;6674;49.152;11.918;2023-04-01T16:04:08;0.57;;;0.40;;
13218;SDS011;6674;49.152;11.918;2023-04-01T16:06:53;0.90;;;0.50;;
13218;SDS011;6674;49.152;11.918;2023-04-01T16:09:33;1.20;;;0.40;;
13218;SDS011;6674;49.152;11.918;2023-04-01T16:12:27;0.30;;;0.30;;
13218;SDS011;6674;49.152;11.918;2023-04-01T16:15:09;0.97;;;0.30;;
13218;SDS011;6674;49.152;11.918;2023-04-01T16:17:53;0.20;;;0.20;;
13218;SDS011;6674;49.152;11.918;2023-04-01T16:20:39;0.50;;;0.40;;
13218;SDS011;6674;49.152;11.918;2023-04-01T16:23:13;0.30;;;0.30;;
13218;SDS011;6674;49.152;11.918;2023-04-01T16:25:46;0.20;;;0.10;;
13218;SDS011;6674;49.152;11.918;2023-04-01T16:28:19;0.40;;;0.40;;
13218;SDS011;6674;49.152;11.918;2023-04-01T16:30:55;0.20;;;0.20;;
13218;SDS011;6674;49.152;11.918;2023-04-01T16:33:27;0.30;;;0.30;;
13218;SDS011;6674;49.152;11.918;2023-04-01T16:36:05;0.20;;;0.20;;
13218;SDS011;6674;49.152;11.918;2023-04-01T16:38:36;0.30;;;0.30;;
13218;SDS011;6674;49.152;11.918;2023-04-01T16:41:10;0.20;;;0.20;;
13218;SDS011;6674;49.152;11.918;2023-04-01T16:43:42;0.90;;;0.33;;
13218;SDS011;6674;49.152;11.918;2023-04-01T16:46:18;0.20;;;0.20;;
13218;SDS011;6674;49.152;11.918;2023-04-01T16:49:03;0.30;;;0.30;;
13218;SDS011;6674;49.152;11.918;2023-04-01T16:51:44;0.30;;;0.20;;
13218;SDS011;6674;49.152;11.918;2023-04-01T16:54:16;0.60;;;0.20;;